sensor_id;sensor_type;location;lat;lon;timestamp;P1;durP1;ratioP1;P2;durP2;ratioP2
6821;SDS011;3449;48.728;8.968;2022-08-01T00:00:15;5.00;;;2.30;;
6821;SDS011;3449;48.728;8.968;2022-08-01T00:02:42;2.13;;;1.93;;
6821;SDS011;3449;48.728;8.968;2022-08-01T00:05:09;3.57;;;2.30;;
6821;SDS011;3449;48.728;8.968;2022-08-01T00:07:38;3.73;;;1.70;;
6821;SDS011;3449;48.728;8.968;2022-08-01T00:10:06;2.30;;;2.10;;
6821;SDS011;3449;48.728;8.968;2022-08-01T00:12:35;3.77;;;2.60;;
6821;SDS011;3449;48.728;8.968;2022-08-01T00:15:02;4.87;;;2.37;;
6821;SDS011;3449;48.728;8.968;2022-08-01T00:17:30;2.73;;;2.33;;
6821;SDS011;3449;48.728;8.968;2022-08-01T00:19:57;2.53;;;2.20;;
6821;SDS011;3449;48.728;8.968;2022-08-01T00:22:24;3.73;;;2.50;;
6821;SDS011;3449;48.728;8.968;2022-08-01T00:24:52;2.60;;;2.40;;
6821;SDS011;3449;48.728;8.968;2022-08-01T00:27:19;3.97;;;2.60;;
6821;SDS011;3449;48.728;8.968;2022-08-01T00:29:46;3.20;;;2.90;;
6821;SDS011;3449;48.728;8.968;2022-08-01T00:32:13;5.97;;;3.00;;
6821;SDS011;3449;48.728;8.968;2022-08-01T00:34:40;9.63;;;2.20;;
6821;SDS011;3449;48.728;8.968;2022-08-01T00:37:07;5.90;;;3.00;;
6821;SDS011;3449;48.728;8.968;2022-08-01T00:39:34;5.13;;;2.43;;
6821;SDS011;3449;48.728;8.968;2022-08-01T00:42:06;3.40;;;2.60;;
6821;SDS011;3449;48.728;8.968;2022-08-01T00:44:34;4.40;;;2.30;;
6821;SDS011;3449;48.728;8.968;2022-08-01T00:47:02;2.83;;;2.57;;
6821;SDS011;3449;48.728;8.968;2022-08-01T00:49:29;2.30;;;2.07;;
6821;SDS011;3449;48.728;8.968;2022-08-01T00:51:56;3.07;;;2.37;;
6821;SDS011;3449;48.728;8.968;2022-08-01T00:54:24;2.87;;;2.30;;
6821;SDS011;3449;48.728;8.968;2022-08-01T00:56:51;3.10;;;2.37;;
6821;SDS011;3449;48.728;8.968;2022-08-01T00:59:20;3.03;;;2.73;;
6821;SDS011;3449;48.728;8.968;2022-08-01T01:01:48;6.90;;;2.63;;
6821;SDS011;3449;48.728;8.968;2022-08-01T01:04:16;3.03;;;2.10;;
6821;SDS011;3449;48.728;8.968;2022-08-01T01:06:44;4.83;;;2.17;;
6821;SDS011;3449;48.728;8.968;2022-08-01T01:09:24;3.77;;;2.87;;
6821;SDS011;3449;48.728;8.968;2022-08-01T01:12:01;2.30;;;2.20;;
6821;SDS011;3449;48.728;8.968;2022-08-01T01:14:42;2.30;;;2.10;;
6821;SDS011;3449;48.728;8.968;2022-08-01T01:17:16;9.53;;;3.10;;
6821;SDS011;3449;48.728;8.968;2022-08-01T01:19:47;3.70;;;2.57;;
6821;SDS011;3449;48.728;8.968;2022-08-01T01:22:31;2.57;;;2.37;;
6821;SDS011;3449;48.728;8.968;2022-08-01T01:25:09;6.07;;;2.83;;
6821;SDS011;3449;48.728;8.968;2022-08-01T01:27:48;2.47;;;2.27;;
6821;SDS011;3449;48.728;8.968;2022-08-01T01:30:19;3.37;;;2.50;;
6821;SDS011;3449;48.728;8.968;2022-08-01T01:32:49;4.00;;;2.33;;
6821;SDS011;3449;48.728;8.968;2022-08-01T01:35:21;2.80;;;2.53;;
6821;SDS011;3449;48.728;8.968;2022-08-01T01:37:50;3.40;;;2.30;;
6821;SDS011;3449;48.728;8.968;2022-08-01T01:40:33;5.27;;;2.50;;
6821;SDS011;3449;48.728;8.968;2022-08-01T01:43:01;4.50;;;3.40;;
6821;SDS011;3449;48.728;8.968;2022-08-01T01:45:30;5.30;;;2.40;;
6821;SDS011;3449;48.728;8.968;2022-08-01T01:47:57;3.90;;;2.93;;
6821;SDS011;3449;48.728;8.968;2022-08-01T01:50:27;3.87;;;2.40;;
6821;SDS011;3449;48.728;8.968;2022-08-01T01:52:54;3.17;;;2.93;;
6821;SDS011;3449;48.728;8.968;2022-08-01T01:55:23;2.50;;;2.30;;
6821;SDS011;3449;48.728;8.968;2022-08-01T01:57:51;4.67;;;2.80;;
6821;SDS011;3449;48.728;8.968;2022-08-01T02:00:20;7.23;;;3.07;;
6821;SDS011;3449;48.728;8.968;2022-08-01T02:02:49;3.37;;;2.70;;
6821;SDS011;3449;48.728;8.968;2022-08-01T02:05:18;3.20;;;2.90;;
6821;SDS011;3449;48.728;8.968;2022-08-01T02:07:47;4.43;;;3.10;;
6821;SDS011;3449;48.728;8.968;2022-08-01T02:10:17;4.17;;;2.50;;
6821;SDS011;3449;48.728;8.968;2022-08-01T02:12:45;2.73;;;2.53;;
6821;SDS011;3449;48.728;8.968;2022-08-01T02:15:15;3.00;;;2.57;;
6821;SDS011;3449;48.728;8.968;2022-08-01T02:17:44;2.40;;;2.30;;
6821;SDS011;3449;48.728;8.968;2022-08-01T02:20:16;3.43;;;3.13;;
6821;SDS011;3449;48.728;8.968;2022-08-01T02:22:44;2.83;;;2.63;;
6821;SDS011;3449;48.728;8.968;2022-08-01T02:25:15;6.63;;;2.70;;
6821;SDS011;3449;48.728;8.968;2022-08-01T02:27:50;4.03;;;3.30;;
6821;SDS011;3449;48.728;8.968;2022-08-01T02:30:22;2.73;;;2.53;;
6821;SDS011;3449;48.728;8.968;2022-08-01T02:32:53;3.30;;;3.00;;
6821;SDS011;3449;48.728;8.968;2022-08-01T02:35:29;2.93;;;2.53;;
6821;SDS011;3449;48.728;8.968;2022-08-01T02:37:58;4.80;;;3.30;;
6821;SDS011;3449;48.728;8.968;2022-08-01T02:40:28;3.20;;;3.00;;
6821;SDS011;3449;48.728;8.968;2022-08-01T02:42:59;3.57;;;3.23;;
6821;SDS011;3449;48.728;8.968;2022-08-01T02:45:28;2.90;;;2.70;;
6821;SDS011;3449;48.728;8.968;2022-08-01T02:47:57;5.40;;;3.10;;
6821;SDS011;3449;48.728;8.968;2022-08-01T02:50:32;3.50;;;3.20;;
6821;SDS011;3449;48.728;8.968;2022-08-01T02:53:00;3.67;;;3.33;;
6821;SDS011;3449;48.728;8.968;2022-08-01T02:55:30;3.33;;;3.03;;
6821;SDS011;3449;48.728;8.968;2022-08-01T02:57:59;5.30;;;2.90;;
6821;SDS011;3449;48.728;8.968;2022-08-01T03:00:27;9.20;;;3.20;;
6821;SDS011;3449;48.728;8.968;2022-08-01T03:02:56;3.60;;;3.30;;
6821;SDS011;3449;48.728;8.968;2022-08-01T03:05:25;3.50;;;3.17;;
6821;SDS011;3449;48.728;8.968;2022-08-01T03:07:55;4.80;;;3.30;;
6821;SDS011;3449;48.728;8.968;2022-08-01T03:10:22;3.20;;;2.90;;
6821;SDS011;3449;48.728;8.968;2022-08-01T03:12:53;3.33;;;3.03;;
6821;SDS011;3449;48.728;8.968;2022-08-01T03:15:21;3.73;;;3.40;;
6821;SDS011;3449;48.728;8.968;2022-08-01T03:17:50;5.13;;;3.50;;
6821;SDS011;3449;48.728;8.968;2022-08-01T03:20:19;5.70;;;3.53;;
6821;SDS011;3449;48.728;8.968;2022-08-01T03:22:49;7.37;;;3.30;;
6821;SDS011;3449;48.728;8.968;2022-08-01T03:25:20;6.30;;;3.43;;
6821;SDS011;3449;48.728;8.968;2022-08-01T03:27:50;3.13;;;2.90;;
6821;SDS011;3449;48.728;8.968;2022-08-01T03:30:21;6.70;;;3.03;;
6821;SDS011;3449;48.728;8.968;2022-08-01T03:32:49;4.63;;;3.50;;
6821;SDS011;3449;48.728;8.968;2022-08-01T03:35:16;4.73;;;3.80;;
6821;SDS011;3449;48.728;8.968;2022-08-01T03:37:44;4.70;;;3.53;;
6821;SDS011;3449;48.728;8.968;2022-08-01T03:40:14;5.40;;;3.43;;
6821;SDS011;3449;48.728;8.968;2022-08-01T03:42:50;4.00;;;3.70;;
6821;SDS011;3449;48.728;8.968;2022-08-01T03:45:21;4.17;;;3.40;;
6821;SDS011;3449;48.728;8.968;2022-08-01T03:47:53;4.00;;;3.60;;
6821;SDS011;3449;48.728;8.968;2022-08-01T03:50:25;3.13;;;2.80;;
6821;SDS011;3449;48.728;8.968;2022-08-01T03:52:55;3.73;;;3.30;;
6821;SDS011;3449;48.728;8.968;2022-08-01T03:55:25;2.73;;;2.53;;
6821;SDS011;3449;48.728;8.968;2022-08-01T03:57:54;2.67;;;2.47;;
6821;SDS011;3449;48.728;8.968;2022-08-01T04:00:21;3.80;;;3.33;;
6821;SDS011;3449;48.728;8.968;2022-08-01T04:02:51;3.47;;;3.17;;
6821;SDS011;3449;48.728;8.968;2022-08-01T04:05:19;2.73;;;2.53;;
6821;SDS011;3449;48.728;8.968;2022-08-01T04:07:46;3.63;;;3.13;;
6821;SDS011;3449;48.728;8.968;2022-08-01T04:10:20;3.27;;;2.93;;
6821;SDS011;3449;48.728;8.968;2022-08-01T04:12:47;2.90;;;2.70;;
6821;SDS011;3449;48.728;8.968;2022-08-01T04:15:15;4.33;;;3.30;;
6821;SDS011;3449;48.728;8.968;2022-08-01T04:17:42;3.67;;;3.27;;
6821;SDS011;3449;48.728;8.968;2022-08-01T04:20:10;3.70;;;2.80;;
6821;SDS011;3449;48.728;8.968;2022-08-01T04:22:37;4.40;;;3.13;;
6821;SDS011;3449;48.728;8.968;2022-08-01T04:25:07;6.20;;;3.07;;
6821;SDS011;3449;48.728;8.968;2022-08-01T04:27:40;2.70;;;2.50;;
6821;SDS011;3449;48.728;8.968;2022-08-01T04:30:11;2.97;;;2.77;;
6821;SDS011;3449;48.728;8.968;2022-08-01T04:32:41;3.50;;;2.93;;
6821;SDS011;3449;48.728;8.968;2022-08-01T04:35:12;3.90;;;2.50;;
6821;SDS011;3449;48.728;8.968;2022-08-01T04:37:42;2.93;;;2.70;;
6821;SDS011;3449;48.728;8.968;2022-08-01T04:40:13;3.90;;;2.90;;
6821;SDS011;3449;48.728;8.968;2022-08-01T04:42:42;4.60;;;3.17;;
6821;SDS011;3449;48.728;8.968;2022-08-01T04:45:09;3.17;;;2.87;;
6821;SDS011;3449;48.728;8.968;2022-08-01T04:47:37;4.00;;;3.20;;
6821;SDS011;3449;48.728;8.968;2022-08-01T04:50:07;4.90;;;3.03;;
6821;SDS011;3449;48.728;8.968;2022-08-01T04:52:36;9.00;;;3.80;;
6821;SDS011;3449;48.728;8.968;2022-08-01T04:55:07;3.87;;;2.83;;
6821;SDS011;3449;48.728;8.968;2022-08-01T04:57:35;4.37;;;3.57;;
6821;SDS011;3449;48.728;8.968;2022-08-01T05:00:06;8.70;;;4.00;;
6821;SDS011;3449;48.728;8.968;2022-08-01T05:02:33;5.93;;;3.37;;
6821;SDS011;3449;48.728;8.968;2022-08-01T05:05:00;4.20;;;3.20;;
6821;SDS011;3449;48.728;8.968;2022-08-01T05:07:29;3.63;;;3.20;;
6821;SDS011;3449;48.728;8.968;2022-08-01T05:09:55;3.80;;;3.40;;
6821;SDS011;3449;48.728;8.968;2022-08-01T05:12:22;4.47;;;4.07;;
6821;SDS011;3449;48.728;8.968;2022-08-01T05:14:49;7.33;;;3.90;;
6821;SDS011;3449;48.728;8.968;2022-08-01T05:17:17;4.43;;;3.40;;
6821;SDS011;3449;48.728;8.968;2022-08-01T05:19:43;8.07;;;3.93;;
6821;SDS011;3449;48.728;8.968;2022-08-01T05:22:11;9.73;;;4.57;;
6821;SDS011;3449;48.728;8.968;2022-08-01T05:24:39;11.20;;;3.57;;
6821;SDS011;3449;48.728;8.968;2022-08-01T05:27:07;7.13;;;3.40;;
6821;SDS011;3449;48.728;8.968;2022-08-01T05:29:34;8.40;;;3.60;;
6821;SDS011;3449;48.728;8.968;2022-08-01T05:32:02;6.37;;;3.50;;
6821;SDS011;3449;48.728;8.968;2022-08-01T05:34:29;7.80;;;3.77;;
6821;SDS011;3449;48.728;8.968;2022-08-01T05:36:56;4.83;;;3.63;;
6821;SDS011;3449;48.728;8.968;2022-08-01T05:39:23;4.53;;;4.10;;
6821;SDS011;3449;48.728;8.968;2022-08-01T05:41:51;4.70;;;3.30;;
6821;SDS011;3449;48.728;8.968;2022-08-01T05:44:18;3.70;;;3.40;;
6821;SDS011;3449;48.728;8.968;2022-08-01T05:46:45;4.23;;;3.70;;
6821;SDS011;3449;48.728;8.968;2022-08-01T05:49:12;25.30;;;10.27;;
6821;SDS011;3449;48.728;8.968;2022-08-01T05:51:39;13.30;;;5.70;;
6821;SDS011;3449;48.728;8.968;2022-08-01T05:54:06;12.43;;;5.40;;
6821;SDS011;3449;48.728;8.968;2022-08-01T05:56:33;10.03;;;5.33;;
6821;SDS011;3449;48.728;8.968;2022-08-01T05:59:01;5.53;;;4.17;;
6821;SDS011;3449;48.728;8.968;2022-08-01T06:01:28;5.03;;;3.27;;
6821;SDS011;3449;48.728;8.968;2022-08-01T06:03:55;6.77;;;3.17;;
6821;SDS011;3449;48.728;8.968;2022-08-01T06:06:22;5.13;;;3.17;;
6821;SDS011;3449;48.728;8.968;2022-08-01T06:08:49;5.53;;;2.53;;
6821;SDS011;3449;48.728;8.968;2022-08-01T06:11:16;3.77;;;3.10;;
6821;SDS011;3449;48.728;8.968;2022-08-01T06:13:44;2.63;;;2.40;;
6821;SDS011;3449;48.728;8.968;2022-08-01T06:16:12;6.80;;;3.03;;
6821;SDS011;3449;48.728;8.968;2022-08-01T06:18:39;3.03;;;2.40;;
6821;SDS011;3449;48.728;8.968;2022-08-01T06:21:06;4.23;;;2.40;;
6821;SDS011;3449;48.728;8.968;2022-08-01T06:23:33;2.90;;;2.13;;
6821;SDS011;3449;48.728;8.968;2022-08-01T06:25:59;2.53;;;2.33;;
6821;SDS011;3449;48.728;8.968;2022-08-01T06:28:27;2.40;;;2.20;;
6821;SDS011;3449;48.728;8.968;2022-08-01T06:30:54;2.50;;;2.30;;
6821;SDS011;3449;48.728;8.968;2022-08-01T06:33:24;3.13;;;2.20;;
6821;SDS011;3449;48.728;8.968;2022-08-01T06:35:51;5.03;;;3.10;;
6821;SDS011;3449;48.728;8.968;2022-08-01T06:38:18;4.57;;;2.93;;
6821;SDS011;3449;48.728;8.968;2022-08-01T06:40:45;2.10;;;1.90;;
6821;SDS011;3449;48.728;8.968;2022-08-01T06:43:12;5.10;;;2.50;;
6821;SDS011;3449;48.728;8.968;2022-08-01T06:45:40;4.33;;;2.30;;
6821;SDS011;3449;48.728;8.968;2022-08-01T06:48:07;4.27;;;2.43;;
6821;SDS011;3449;48.728;8.968;2022-08-01T06:50:35;2.90;;;2.40;;
6821;SDS011;3449;48.728;8.968;2022-08-01T06:53:02;5.33;;;2.30;;
6821;SDS011;3449;48.728;8.968;2022-08-01T06:55:29;7.93;;;2.40;;
6821;SDS011;3449;48.728;8.968;2022-08-01T06:57:56;5.73;;;2.13;;
6821;SDS011;3449;48.728;8.968;2022-08-01T07:00:24;6.90;;;2.60;;
6821;SDS011;3449;48.728;8.968;2022-08-01T07:02:52;12.53;;;2.77;;
6821;SDS011;3449;48.728;8.968;2022-08-01T07:05:20;10.10;;;2.90;;
6821;SDS011;3449;48.728;8.968;2022-08-01T07:07:49;6.00;;;2.40;;
6821;SDS011;3449;48.728;8.968;2022-08-01T07:10:16;11.60;;;2.70;;
6821;SDS011;3449;48.728;8.968;2022-08-01T07:12:43;7.20;;;2.10;;
6821;SDS011;3449;48.728;8.968;2022-08-01T07:15:10;3.80;;;1.90;;
6821;SDS011;3449;48.728;8.968;2022-08-01T07:17:38;2.00;;;1.53;;
6821;SDS011;3449;48.728;8.968;2022-08-01T07:20:06;1.73;;;1.60;;
6821;SDS011;3449;48.728;8.968;2022-08-01T07:22:34;1.30;;;1.30;;
6821;SDS011;3449;48.728;8.968;2022-08-01T07:25:03;4.20;;;2.17;;
6821;SDS011;3449;48.728;8.968;2022-08-01T07:27:31;3.47;;;1.90;;
6821;SDS011;3449;48.728;8.968;2022-08-01T07:29:58;6.40;;;2.40;;
6821;SDS011;3449;48.728;8.968;2022-08-01T07:32:25;1.77;;;1.67;;
6821;SDS011;3449;48.728;8.968;2022-08-01T07:34:54;2.20;;;1.60;;
6821;SDS011;3449;48.728;8.968;2022-08-01T07:37:21;1.80;;;1.70;;
6821;SDS011;3449;48.728;8.968;2022-08-01T07:39:48;2.40;;;2.03;;
6821;SDS011;3449;48.728;8.968;2022-08-01T07:42:17;1.93;;;1.67;;
6821;SDS011;3449;48.728;8.968;2022-08-01T07:44:44;3.60;;;1.80;;
6821;SDS011;3449;48.728;8.968;2022-08-01T07:47:11;3.70;;;1.73;;
6821;SDS011;3449;48.728;8.968;2022-08-01T07:49:38;1.97;;;1.80;;
6821;SDS011;3449;48.728;8.968;2022-08-01T07:52:05;1.93;;;1.70;;
6821;SDS011;3449;48.728;8.968;2022-08-01T07:54:32;2.13;;;1.90;;
6821;SDS011;3449;48.728;8.968;2022-08-01T07:56:59;3.40;;;1.90;;
6821;SDS011;3449;48.728;8.968;2022-08-01T07:59:28;3.70;;;2.50;;
6821;SDS011;3449;48.728;8.968;2022-08-01T08:01:56;3.13;;;2.00;;
6821;SDS011;3449;48.728;8.968;2022-08-01T08:04:23;2.47;;;2.27;;
6821;SDS011;3449;48.728;8.968;2022-08-01T08:06:50;5.27;;;1.80;;
6821;SDS011;3449;48.728;8.968;2022-08-01T08:09:18;2.80;;;2.00;;
6821;SDS011;3449;48.728;8.968;2022-08-01T08:11:45;2.20;;;2.10;;
6821;SDS011;3449;48.728;8.968;2022-08-01T08:14:13;3.90;;;3.03;;
6821;SDS011;3449;48.728;8.968;2022-08-01T08:16:41;4.33;;;2.30;;
6821;SDS011;3449;48.728;8.968;2022-08-01T08:19:08;6.90;;;3.10;;
6821;SDS011;3449;48.728;8.968;2022-08-01T08:21:35;5.97;;;3.00;;
6821;SDS011;3449;48.728;8.968;2022-08-01T08:24:02;3.43;;;2.70;;
6821;SDS011;3449;48.728;8.968;2022-08-01T08:26:49;2.80;;;2.33;;
6821;SDS011;3449;48.728;8.968;2022-08-01T08:29:17;6.73;;;3.33;;
6821;SDS011;3449;48.728;8.968;2022-08-01T08:31:46;4.33;;;3.00;;
6821;SDS011;3449;48.728;8.968;2022-08-01T08:34:13;3.50;;;3.13;;
6821;SDS011;3449;48.728;8.968;2022-08-01T08:36:41;3.80;;;2.40;;
6821;SDS011;3449;48.728;8.968;2022-08-01T08:39:08;3.50;;;3.10;;
6821;SDS011;3449;48.728;8.968;2022-08-01T08:41:35;3.53;;;2.90;;
6821;SDS011;3449;48.728;8.968;2022-08-01T08:44:02;3.30;;;2.27;;
6821;SDS011;3449;48.728;8.968;2022-08-01T08:46:30;3.07;;;2.87;;
6821;SDS011;3449;48.728;8.968;2022-08-01T08:49:00;4.63;;;3.10;;
6821;SDS011;3449;48.728;8.968;2022-08-01T08:51:30;6.23;;;3.03;;
6821;SDS011;3449;48.728;8.968;2022-08-01T08:53:57;5.27;;;3.30;;
6821;SDS011;3449;48.728;8.968;2022-08-01T08:56:26;4.10;;;2.80;;
6821;SDS011;3449;48.728;8.968;2022-08-01T08:58:55;4.37;;;3.37;;
6821;SDS011;3449;48.728;8.968;2022-08-01T09:01:23;11.03;;;2.67;;
6821;SDS011;3449;48.728;8.968;2022-08-01T09:03:50;6.17;;;3.40;;
6821;SDS011;3449;48.728;8.968;2022-08-01T09:06:18;3.97;;;3.43;;
6821;SDS011;3449;48.728;8.968;2022-08-01T09:08:45;3.20;;;2.97;;
6821;SDS011;3449;48.728;8.968;2022-08-01T09:11:12;4.40;;;3.87;;
6821;SDS011;3449;48.728;8.968;2022-08-01T09:13:39;6.10;;;3.97;;
6821;SDS011;3449;48.728;8.968;2022-08-01T09:16:06;4.10;;;3.70;;
6821;SDS011;3449;48.728;8.968;2022-08-01T09:18:34;6.37;;;4.03;;
6821;SDS011;3449;48.728;8.968;2022-08-01T09:21:12;5.03;;;3.53;;
6821;SDS011;3449;48.728;8.968;2022-08-01T09:23:43;7.83;;;4.40;;
6821;SDS011;3449;48.728;8.968;2022-08-01T09:26:12;7.30;;;4.30;;
6821;SDS011;3449;48.728;8.968;2022-08-01T09:28:41;5.10;;;4.60;;
6821;SDS011;3449;48.728;8.968;2022-08-01T09:31:09;13.23;;;5.63;;
6821;SDS011;3449;48.728;8.968;2022-08-01T09:33:50;7.23;;;5.07;;
6821;SDS011;3449;48.728;8.968;2022-08-01T09:36:19;7.00;;;4.50;;
6821;SDS011;3449;48.728;8.968;2022-08-01T09:38:48;5.90;;;3.90;;
6821;SDS011;3449;48.728;8.968;2022-08-01T09:41:16;4.80;;;4.30;;
6821;SDS011;3449;48.728;8.968;2022-08-01T09:43:54;4.40;;;4.00;;
6821;SDS011;3449;48.728;8.968;2022-08-01T09:46:21;5.00;;;4.50;;
6821;SDS011;3449;48.728;8.968;2022-08-01T09:48:58;6.50;;;3.57;;
6821;SDS011;3449;48.728;8.968;2022-08-01T09:51:30;7.90;;;4.17;;
6821;SDS011;3449;48.728;8.968;2022-08-01T09:54:00;11.00;;;3.80;;
6821;SDS011;3449;48.728;8.968;2022-08-01T09:56:35;13.10;;;4.10;;
6821;SDS011;3449;48.728;8.968;2022-08-01T09:59:03;4.27;;;3.30;;
6821;SDS011;3449;48.728;8.968;2022-08-01T10:01:41;3.87;;;3.40;;
6821;SDS011;3449;48.728;8.968;2022-08-01T10:04:11;3.80;;;3.43;;
6821;SDS011;3449;48.728;8.968;2022-08-01T10:06:39;4.53;;;3.57;;
6821;SDS011;3449;48.728;8.968;2022-08-01T10:09:11;4.10;;;3.70;;
6821;SDS011;3449;48.728;8.968;2022-08-01T10:11:40;5.63;;;3.47;;
6821;SDS011;3449;48.728;8.968;2022-08-01T10:14:08;4.03;;;3.60;;
6821;SDS011;3449;48.728;8.968;2022-08-01T10:16:38;3.73;;;3.37;;
6821;SDS011;3449;48.728;8.968;2022-08-01T10:19:06;4.43;;;3.23;;
6821;SDS011;3449;48.728;8.968;2022-08-01T10:21:33;5.50;;;3.20;;
6821;SDS011;3449;48.728;8.968;2022-08-01T10:24:03;4.07;;;2.33;;
6821;SDS011;3449;48.728;8.968;2022-08-01T10:26:33;4.80;;;3.37;;
6821;SDS011;3449;48.728;8.968;2022-08-01T10:29:00;7.10;;;3.20;;
6821;SDS011;3449;48.728;8.968;2022-08-01T10:31:29;4.47;;;3.30;;
6821;SDS011;3449;48.728;8.968;2022-08-01T10:33:58;3.03;;;2.70;;
6821;SDS011;3449;48.728;8.968;2022-08-01T10:36:26;2.87;;;2.53;;
6821;SDS011;3449;48.728;8.968;2022-08-01T10:38:54;6.60;;;3.20;;
6821;SDS011;3449;48.728;8.968;2022-08-01T10:41:22;4.30;;;2.97;;
6821;SDS011;3449;48.728;8.968;2022-08-01T10:43:52;4.27;;;2.60;;
6821;SDS011;3449;48.728;8.968;2022-08-01T10:46:20;3.17;;;2.60;;
6821;SDS011;3449;48.728;8.968;2022-08-01T10:48:49;2.83;;;2.60;;
6821;SDS011;3449;48.728;8.968;2022-08-01T10:51:20;2.73;;;2.53;;
6821;SDS011;3449;48.728;8.968;2022-08-01T10:53:50;12.33;;;2.70;;
6821;SDS011;3449;48.728;8.968;2022-08-01T10:56:18;2.57;;;2.37;;
6821;SDS011;3449;48.728;8.968;2022-08-01T10:58:46;2.40;;;2.30;;
6821;SDS011;3449;48.728;8.968;2022-08-01T11:01:19;6.87;;;2.40;;
6821;SDS011;3449;48.728;8.968;2022-08-01T11:03:58;5.40;;;2.60;;
6821;SDS011;3449;48.728;8.968;2022-08-01T11:06:36;4.80;;;2.47;;
6821;SDS011;3449;48.728;8.968;2022-08-01T11:09:16;2.50;;;2.30;;
6821;SDS011;3449;48.728;8.968;2022-08-01T11:12:00;2.97;;;2.77;;
6821;SDS011;3449;48.728;8.968;2022-08-01T11:14:31;2.67;;;2.40;;
6821;SDS011;3449;48.728;8.968;2022-08-01T11:20:05;3.73;;;2.47;;
6821;SDS011;3449;48.728;8.968;2022-08-01T11:28:38;3.13;;;2.20;;
6821;SDS011;3449;48.728;8.968;2022-08-01T11:34:07;2.40;;;2.30;;
6821;SDS011;3449;48.728;8.968;2022-08-01T11:36:34;2.70;;;2.37;;
6821;SDS011;3449;48.728;8.968;2022-08-01T11:39:11;2.40;;;2.20;;
6821;SDS011;3449;48.728;8.968;2022-08-01T11:41:39;3.33;;;3.03;;
6821;SDS011;3449;48.728;8.968;2022-08-01T11:44:08;3.30;;;2.50;;
6821;SDS011;3449;48.728;8.968;2022-08-01T11:46:47;3.27;;;2.10;;
6821;SDS011;3449;48.728;8.968;2022-08-01T11:49:23;4.17;;;2.60;;
6821;SDS011;3449;48.728;8.968;2022-08-01T11:52:00;2.43;;;2.23;;
6821;SDS011;3449;48.728;8.968;2022-08-01T11:54:29;4.40;;;2.47;;
6821;SDS011;3449;48.728;8.968;2022-08-01T11:56:57;2.73;;;2.53;;
6821;SDS011;3449;48.728;8.968;2022-08-01T11:59:25;2.67;;;2.43;;
6821;SDS011;3449;48.728;8.968;2022-08-01T12:01:52;2.10;;;2.00;;
6821;SDS011;3449;48.728;8.968;2022-08-01T12:04:19;5.33;;;2.93;;
6821;SDS011;3449;48.728;8.968;2022-08-01T12:06:48;6.30;;;2.97;;
6821;SDS011;3449;48.728;8.968;2022-08-01T12:09:15;3.50;;;2.67;;
6821;SDS011;3449;48.728;8.968;2022-08-01T12:11:43;3.40;;;2.70;;
6821;SDS011;3449;48.728;8.968;2022-08-01T12:14:15;2.43;;;2.23;;
6821;SDS011;3449;48.728;8.968;2022-08-01T12:16:48;2.27;;;2.10;;
6821;SDS011;3449;48.728;8.968;2022-08-01T12:19:20;3.97;;;2.23;;
6821;SDS011;3449;48.728;8.968;2022-08-01T12:24:40;2.13;;;2.03;;
6821;SDS011;3449;48.728;8.968;2022-08-01T12:27:08;2.87;;;2.27;;
6821;SDS011;3449;48.728;8.968;2022-08-01T12:29:38;4.33;;;1.80;;
6821;SDS011;3449;48.728;8.968;2022-08-01T12:32:22;2.23;;;2.10;;
6821;SDS011;3449;48.728;8.968;2022-08-01T12:34:51;4.30;;;2.70;;
6821;SDS011;3449;48.728;8.968;2022-08-01T12:37:21;7.60;;;2.80;;
6821;SDS011;3449;48.728;8.968;2022-08-01T12:39:49;5.07;;;3.13;;
6821;SDS011;3449;48.728;8.968;2022-08-01T12:42:16;9.90;;;2.50;;
6821;SDS011;3449;48.728;8.968;2022-08-01T12:44:44;2.33;;;2.17;;
6821;SDS011;3449;48.728;8.968;2022-08-01T12:47:13;3.77;;;2.50;;
6821;SDS011;3449;48.728;8.968;2022-08-01T12:49:41;2.40;;;2.23;;
6821;SDS011;3449;48.728;8.968;2022-08-01T12:52:09;7.23;;;2.40;;
6821;SDS011;3449;48.728;8.968;2022-08-01T12:57:29;3.93;;;2.27;;
6821;SDS011;3449;48.728;8.968;2022-08-01T13:00:09;3.70;;;2.13;;
6821;SDS011;3449;48.728;8.968;2022-08-01T13:02:38;5.83;;;2.27;;
6821;SDS011;3449;48.728;8.968;2022-08-01T13:05:06;2.60;;;2.20;;
6821;SDS011;3449;48.728;8.968;2022-08-01T13:07:35;2.20;;;2.00;;
6821;SDS011;3449;48.728;8.968;2022-08-01T13:10:05;2.30;;;2.10;;
6821;SDS011;3449;48.728;8.968;2022-08-01T13:12:32;3.80;;;2.60;;
6821;SDS011;3449;48.728;8.968;2022-08-01T13:15:14;6.63;;;2.40;;
6821;SDS011;3449;48.728;8.968;2022-08-01T13:17:48;3.50;;;2.37;;
6821;SDS011;3449;48.728;8.968;2022-08-01T13:20:22;3.33;;;2.57;;
6821;SDS011;3449;48.728;8.968;2022-08-01T13:22:50;2.30;;;2.10;;
6821;SDS011;3449;48.728;8.968;2022-08-01T13:25:19;2.50;;;2.10;;
6821;SDS011;3449;48.728;8.968;2022-08-01T13:27:46;2.43;;;2.23;;
6821;SDS011;3449;48.728;8.968;2022-08-01T13:30:13;2.40;;;2.20;;
6821;SDS011;3449;48.728;8.968;2022-08-01T13:32:42;5.43;;;2.60;;
6821;SDS011;3449;48.728;8.968;2022-08-01T13:35:10;2.83;;;2.23;;
6821;SDS011;3449;48.728;8.968;2022-08-01T13:37:39;2.53;;;2.33;;
6821;SDS011;3449;48.728;8.968;2022-08-01T13:40:08;5.23;;;2.70;;
6821;SDS011;3449;48.728;8.968;2022-08-01T13:42:38;4.43;;;2.03;;
6821;SDS011;3449;48.728;8.968;2022-08-01T13:45:05;2.70;;;2.40;;
6821;SDS011;3449;48.728;8.968;2022-08-01T13:47:35;3.23;;;2.93;;
6821;SDS011;3449;48.728;8.968;2022-08-01T13:50:04;3.93;;;2.77;;
6821;SDS011;3449;48.728;8.968;2022-08-01T13:52:31;4.10;;;2.60;;
6821;SDS011;3449;48.728;8.968;2022-08-01T13:54:58;4.87;;;2.57;;
6821;SDS011;3449;48.728;8.968;2022-08-01T13:57:26;2.50;;;2.13;;
6821;SDS011;3449;48.728;8.968;2022-08-01T13:59:55;2.30;;;1.70;;
6821;SDS011;3449;48.728;8.968;2022-08-01T14:02:24;2.03;;;1.83;;
6821;SDS011;3449;48.728;8.968;2022-08-01T14:04:52;3.23;;;2.83;;
6821;SDS011;3449;48.728;8.968;2022-08-01T14:07:19;2.57;;;2.33;;
6821;SDS011;3449;48.728;8.968;2022-08-01T14:09:46;5.43;;;2.63;;
6821;SDS011;3449;48.728;8.968;2022-08-01T14:12:13;6.47;;;2.90;;
6821;SDS011;3449;48.728;8.968;2022-08-01T14:14:40;5.50;;;2.80;;
6821;SDS011;3449;48.728;8.968;2022-08-01T14:17:08;3.77;;;3.00;;
6821;SDS011;3449;48.728;8.968;2022-08-01T14:19:35;3.67;;;2.60;;
6821;SDS011;3449;48.728;8.968;2022-08-01T14:22:02;2.07;;;1.97;;
6821;SDS011;3449;48.728;8.968;2022-08-01T14:24:29;4.03;;;2.30;;
6821;SDS011;3449;48.728;8.968;2022-08-01T14:26:56;2.30;;;2.20;;
6821;SDS011;3449;48.728;8.968;2022-08-01T14:29:23;4.03;;;1.77;;
6821;SDS011;3449;48.728;8.968;2022-08-01T14:31:50;3.00;;;2.67;;
6821;SDS011;3449;48.728;8.968;2022-08-01T14:34:18;7.23;;;3.30;;
6821;SDS011;3449;48.728;8.968;2022-08-01T14:36:45;2.47;;;2.20;;
6821;SDS011;3449;48.728;8.968;2022-08-01T14:39:12;7.23;;;2.33;;
6821;SDS011;3449;48.728;8.968;2022-08-01T14:41:39;2.90;;;2.30;;
6821;SDS011;3449;48.728;8.968;2022-08-01T14:44:06;2.90;;;2.60;;
6821;SDS011;3449;48.728;8.968;2022-08-01T14:46:33;2.90;;;2.07;;
6821;SDS011;3449;48.728;8.968;2022-08-01T14:49:00;2.03;;;1.90;;
6821;SDS011;3449;48.728;8.968;2022-08-01T14:51:29;2.40;;;2.20;;
6821;SDS011;3449;48.728;8.968;2022-08-01T14:53:58;1.93;;;1.70;;
6821;SDS011;3449;48.728;8.968;2022-08-01T14:56:25;4.20;;;2.17;;
6821;SDS011;3449;48.728;8.968;2022-08-01T14:58:52;6.37;;;2.60;;
6821;SDS011;3449;48.728;8.968;2022-08-01T15:01:19;2.40;;;2.20;;
6821;SDS011;3449;48.728;8.968;2022-08-01T15:03:46;3.17;;;1.70;;
6821;SDS011;3449;48.728;8.968;2022-08-01T15:06:14;8.47;;;2.20;;
6821;SDS011;3449;48.728;8.968;2022-08-01T15:08:46;5.63;;;2.30;;
6821;SDS011;3449;48.728;8.968;2022-08-01T15:11:13;3.40;;;2.33;;
6821;SDS011;3449;48.728;8.968;2022-08-01T15:13:39;5.73;;;2.60;;
6821;SDS011;3449;48.728;8.968;2022-08-01T15:16:06;3.67;;;2.30;;
6821;SDS011;3449;48.728;8.968;2022-08-01T15:18:33;4.13;;;2.30;;
6821;SDS011;3449;48.728;8.968;2022-08-01T15:21:00;6.60;;;2.30;;
6821;SDS011;3449;48.728;8.968;2022-08-01T15:23:28;3.67;;;1.70;;
6821;SDS011;3449;48.728;8.968;2022-08-01T15:25:56;2.33;;;1.73;;
6821;SDS011;3449;48.728;8.968;2022-08-01T15:28:23;2.73;;;2.07;;
6821;SDS011;3449;48.728;8.968;2022-08-01T15:30:50;5.47;;;1.83;;
6821;SDS011;3449;48.728;8.968;2022-08-01T15:33:17;5.37;;;2.10;;
6821;SDS011;3449;48.728;8.968;2022-08-01T15:35:46;2.83;;;1.70;;
6821;SDS011;3449;48.728;8.968;2022-08-01T15:38:13;2.00;;;1.80;;
6821;SDS011;3449;48.728;8.968;2022-08-01T15:40:40;3.17;;;1.80;;
6821;SDS011;3449;48.728;8.968;2022-08-01T15:43:08;1.80;;;1.70;;